createdAt,value
2023-04-08T00:01:27.357Z,10.35
2023-04-08T00:04:47.755Z,10.60
2023-04-08T00:08:08.166Z,10.82
2023-04-08T00:11:30.552Z,10.60
2023-04-08T00:14:50.904Z,10.38
2023-04-08T00:18:11.226Z,9.63
2023-04-08T00:21:31.518Z,11.85
2023-04-08T00:24:51.831Z,11.93
2023-04-08T00:28:13.621Z,10.93
2023-04-08T00:31:34.611Z,10.43
2023-04-08T00:34:54.971Z,11.13
2023-04-08T00:38:15.197Z,11.48
2023-04-08T00:41:35.711Z,10.85
2023-04-08T00:44:57.474Z,10.60
2023-04-08T00:48:17.814Z,11.25
2023-04-08T00:51:38.496Z,10.40
2023-04-08T00:54:58.860Z,11.18
2023-04-08T00:58:19.584Z,12.07
2023-04-08T01:01:51.053Z,12.10
2023-04-08T01:05:23.616Z,12.93
2023-04-08T01:08:45.164Z,12.80
2023-04-08T01:12:08.049Z,12.45
2023-04-08T01:15:29.312Z,12.27
2023-04-08T01:18:52.456Z,13.55
2023-04-08T01:22:17.039Z,12.60
2023-04-08T01:25:38.596Z,12.65
2023-04-08T01:29:02.987Z,13.15
2023-04-08T01:32:24.919Z,12.95
2023-04-08T01:35:47.338Z,13.07
2023-04-08T01:39:08.867Z,12.38
2023-04-08T01:42:29.980Z,12.88
2023-04-08T01:45:54.745Z,13.82
2023-04-08T01:49:15.382Z,12.38
2023-04-08T01:52:36.321Z,13.35
2023-04-08T01:55:59.130Z,12.55
2023-04-08T01:59:22.390Z,11.65
2023-04-08T02:02:44.998Z,11.05
2023-04-08T02:06:06.818Z,11.65
2023-04-08T02:09:28.209Z,11.48
2023-04-08T02:12:48.617Z,11.68
2023-04-08T02:16:11.910Z,11.00
2023-04-08T02:19:37.633Z,11.30
2023-04-08T02:23:02.429Z,12.23
2023-04-08T02:26:23.649Z,11.45
2023-04-08T02:29:44.312Z,11.88
2023-04-08T02:33:05.335Z,11.60
2023-04-08T02:36:27.758Z,10.75
2023-04-08T02:39:48.109Z,11.15
2023-04-08T02:43:08.331Z,12.52
2023-04-08T02:46:31.588Z,11.32
2023-04-08T02:49:53.562Z,12.25
2023-04-08T02:53:16.378Z,12.85
2023-04-08T02:56:36.581Z,13.18
2023-04-08T02:59:57.074Z,12.88
2023-04-08T03:03:17.445Z,13.80
2023-04-08T03:06:37.842Z,13.68
2023-04-08T03:10:00.126Z,13.00
2023-04-08T03:13:20.400Z,13.98
2023-04-08T03:16:40.826Z,13.65
2023-04-08T03:20:01.221Z,14.30
2023-04-08T03:23:21.928Z,14.73
2023-04-08T03:26:43.503Z,17.25
2023-04-08T03:30:03.871Z,16.20
2023-04-08T03:33:24.447Z,16.95
2023-04-08T03:36:44.683Z,17.00
2023-04-08T03:40:05.208Z,17.52
2023-04-08T03:43:27.615Z,17.48
2023-04-08T03:46:49.260Z,16.70
2023-04-08T03:50:10.109Z,16.92
2023-04-08T03:53:30.798Z,15.60
2023-04-08T03:56:51.219Z,16.80
2023-04-08T04:00:13.444Z,16.08
2023-04-08T04:03:33.894Z,16.23
2023-04-08T04:06:54.657Z,16.08
2023-04-08T04:10:14.893Z,16.92
2023-04-08T04:13:35.266Z,16.15
2023-04-08T04:16:57.009Z,16.10
2023-04-08T04:20:17.830Z,16.05
2023-04-08T04:23:38.160Z,14.73
2023-04-08T04:27:01.797Z,15.57
2023-04-08T04:30:25.931Z,16.35
2023-04-08T04:33:47.597Z,15.77
2023-04-08T04:37:07.921Z,15.75
2023-04-08T04:40:28.173Z,16.02
2023-04-08T04:43:48.681Z,16.63
2023-04-08T04:47:08.862Z,17.35
2023-04-08T04:50:30.494Z,17.55
2023-04-08T04:53:50.993Z,17.00
2023-04-08T04:57:12.370Z,16.52
2023-04-08T05:00:32.659Z,16.40
2023-04-08T05:03:52.893Z,16.17
2023-04-08T05:07:15.011Z,17.30
2023-04-08T05:10:35.194Z,17.52
2023-04-08T05:13:55.506Z,17.73
2023-04-08T05:17:15.785Z,17.05
2023-04-08T05:20:36.086Z,17.90
2023-04-08T05:23:57.748Z,17.70
2023-04-08T05:27:18.074Z,17.67
2023-04-08T05:30:38.278Z,18.15
2023-04-08T05:33:58.475Z,15.82
2023-04-08T05:37:18.740Z,17.35
2023-04-08T05:40:40.621Z,16.27
2023-04-08T05:44:00.866Z,16.40
2023-04-08T05:47:21.261Z,15.20
2023-04-08T05:50:41.483Z,15.05
2023-04-08T05:54:01.749Z,14.05
2023-04-08T05:57:23.417Z,13.63
2023-04-08T06:00:43.639Z,14.95
2023-04-08T06:04:04.094Z,13.70
2023-04-08T06:07:24.525Z,15.30
2023-04-08T06:10:49.475Z,14.35
2023-04-08T06:14:11.272Z,13.90
2023-04-08T06:17:31.666Z,13.23
2023-04-08T06:20:51.845Z,15.25
2023-04-08T06:24:12.168Z,15.20
2023-04-08T06:27:32.381Z,16.30
2023-04-08T06:30:53.918Z,15.18
2023-04-08T06:34:14.580Z,15.65
2023-04-08T06:37:38.370Z,15.48
2023-04-08T06:41:03.018Z,15.23
2023-04-08T06:44:23.285Z,15.27
2023-04-08T06:47:44.934Z,15.95
2023-04-08T06:51:05.816Z,14.85
2023-04-08T06:54:26.134Z,14.57
2023-04-08T06:57:46.667Z,14.60
2023-04-08T07:01:07.712Z,13.98
2023-04-08T07:04:29.317Z,14.07
2023-04-08T07:07:49.692Z,13.82
2023-04-08T07:11:09.893Z,13.68
2023-04-08T07:14:30.391Z,13.70
2023-04-08T07:17:51.644Z,14.23
2023-04-08T07:21:13.297Z,14.07
2023-04-08T07:24:34.259Z,14.85
2023-04-08T07:27:54.478Z,14.80
2023-04-08T07:31:16.020Z,16.13
2023-04-08T07:34:36.677Z,15.23
2023-04-08T07:37:58.246Z,15.85
2023-04-08T07:41:18.442Z,14.70
2023-04-08T07:44:39.125Z,15.50
2023-04-08T07:47:59.368Z,15.70
2023-04-08T07:51:20.463Z,16.40
2023-04-08T07:54:42.774Z,16.42
2023-04-08T07:58:03.163Z,16.27
2023-04-08T08:01:23.780Z,14.73
2023-04-08T08:04:44.612Z,17.05
2023-04-08T08:08:07.414Z,16.20
2023-04-08T08:11:29.372Z,15.93
2023-04-08T08:14:50.014Z,17.02
2023-04-08T08:18:10.271Z,15.65
2023-04-08T08:21:31.077Z,17.70
2023-04-08T08:24:56.319Z,15.27
2023-04-08T08:28:18.071Z,16.58
2023-04-08T08:31:38.318Z,15.30
2023-04-08T08:34:58.571Z,16.52
2023-04-08T08:38:18.868Z,16.88
2023-04-08T08:41:39.526Z,16.13
2023-04-08T08:45:02.612Z,16.15
2023-04-08T08:48:22.919Z,15.88
2023-04-08T08:51:43.308Z,15.57
2023-04-08T08:55:16.794Z,16.30
2023-04-08T08:58:43.832Z,15.75
2023-04-08T09:02:29.271Z,14.60
2023-04-08T09:05:51.787Z,14.80
2023-04-08T09:09:22.787Z,14.90
2023-04-08T09:12:54.213Z,15.50
2023-04-08T09:16:16.654Z,14.35
2023-04-08T09:19:38.652Z,14.05
2023-04-08T09:22:59.840Z,13.25
2023-04-08T09:26:22.011Z,14.57
2023-04-08T09:29:51.667Z,14.60
2023-04-08T09:33:12.031Z,13.07
2023-04-08T09:36:37.762Z,11.95
2023-04-08T09:39:58.151Z,13.50
2023-04-08T09:43:19.275Z,14.30
2023-04-08T09:46:41.378Z,11.18
2023-04-08T09:50:05.843Z,11.48
2023-04-08T09:53:36.470Z,11.82
2023-04-08T09:57:03.580Z,11.77
2023-04-08T10:00:26.185Z,12.70
2023-04-08T10:03:50.004Z,12.50
2023-04-08T10:07:10.717Z,12.32
2023-04-08T10:10:32.420Z,12.60
2023-04-08T10:13:53.362Z,12.10
2023-04-08T10:17:27.449Z,13.07
2023-04-08T10:20:48.978Z,12.80
2023-04-08T10:24:11.062Z,12.02
2023-04-08T10:27:39.699Z,12.90
2023-04-08T10:31:23.058Z,11.82
2023-04-08T10:34:52.402Z,12.77
2023-04-08T10:38:13.814Z,11.13
2023-04-08T10:41:34.709Z,11.43
2023-04-08T10:45:01.963Z,11.00
2023-04-08T10:48:24.499Z,11.15
2023-04-08T10:51:50.073Z,11.50
2023-04-08T10:55:12.042Z,12.65
2023-04-08T10:58:32.404Z,12.15
2023-04-08T11:01:58.586Z,11.05
2023-04-08T11:05:19.411Z,11.32
2023-04-08T11:08:39.695Z,12.32
2023-04-08T11:12:03.375Z,12.02
2023-04-08T11:15:25.440Z,12.50
2023-04-08T11:18:48.465Z,13.52
2023-04-08T11:22:10.227Z,14.68
2023-04-08T11:25:30.887Z,12.75
2023-04-08T11:28:52.244Z,11.13
2023-04-08T11:32:12.881Z,11.00
2023-04-08T11:35:34.927Z,11.77
2023-04-08T11:38:58.262Z,10.95
2023-04-08T11:42:36.208Z,11.27
2023-04-08T11:46:09.578Z,12.52
2023-04-08T11:49:29.757Z,12.40
2023-04-08T11:52:52.920Z,12.07
2023-04-08T11:56:17.692Z,12.23
2023-04-08T11:59:37.960Z,11.85
2023-04-08T12:02:58.417Z,12.23
2023-04-08T12:06:18.881Z,11.82
2023-04-08T12:09:40.649Z,11.75
2023-04-08T12:13:01.032Z,12.38
2023-04-08T12:16:21.672Z,11.93
2023-04-08T12:19:41.900Z,12.20
2023-04-08T12:23:02.044Z,12.05
2023-04-08T12:26:24.244Z,12.02
2023-04-08T12:29:44.509Z,11.27
2023-04-08T12:33:04.959Z,10.88
2023-04-08T12:36:27.492Z,11.80
2023-04-08T12:39:47.852Z,11.13
2023-04-08T12:43:09.585Z,11.55
2023-04-08T12:46:29.987Z,12.63
2023-04-08T12:49:50.652Z,13.02
2023-04-08T12:53:11.009Z,11.93
2023-04-08T12:56:31.642Z,12.52
2023-04-08T12:59:53.651Z,12.27
2023-04-08T13:03:16.369Z,12.23
2023-04-08T13:06:37.363Z,13.50
2023-04-08T13:09:57.594Z,12.48
2023-04-08T13:13:18.747Z,12.63
2023-04-08T13:16:40.491Z,13.45
2023-04-08T13:20:00.859Z,11.73
2023-04-08T13:23:21.543Z,11.18
2023-04-08T13:26:41.796Z,13.23
2023-04-08T13:30:02.017Z,11.88
2023-04-08T13:33:23.735Z,13.05
2023-04-08T13:36:44.024Z,12.75
2023-04-08T13:40:05.134Z,13.35
2023-04-08T13:43:25.532Z,11.80
2023-04-08T13:46:46.139Z,13.55
2023-04-08T13:50:08.268Z,13.77
2023-04-08T13:53:28.556Z,13.50
2023-04-08T13:56:48.816Z,12.60
2023-04-08T14:00:10.228Z,14.13
2023-04-08T14:03:31.810Z,13.05
2023-04-08T14:06:53.489Z,14.10
2023-04-08T14:10:15.630Z,13.25
2023-04-08T14:13:36.156Z,13.40
2023-04-08T14:16:56.490Z,13.02
2023-04-08T14:20:16.724Z,12.13
2023-04-08T14:23:38.277Z,11.68
2023-04-08T14:26:59.027Z,11.65
2023-04-08T14:30:19.807Z,11.77
2023-04-08T14:33:40.697Z,12.10
2023-04-08T14:37:01.215Z,12.40
2023-04-08T14:40:22.834Z,12.43
2023-04-08T14:43:43.016Z,11.60
2023-04-08T14:47:03.812Z,13.43
2023-04-08T14:50:24.031Z,14.32
2023-04-08T14:53:44.547Z,15.52
2023-04-08T14:57:06.508Z,16.67
2023-04-08T15:00:26.795Z,15.88
2023-04-08T15:03:48.019Z,15.00
2023-04-08T15:07:08.554Z,15.20
2023-04-08T15:10:28.925Z,14.70
2023-04-08T15:13:50.573Z,14.43
2023-04-08T15:17:11.187Z,14.85
2023-04-08T15:20:31.529Z,15.27
2023-04-08T15:23:52.086Z,16.23
2023-04-08T15:27:12.341Z,18.65
2023-04-08T15:30:36.012Z,15.40
2023-04-08T15:33:56.832Z,15.32
2023-04-08T15:37:17.767Z,22.98
2023-04-08T15:40:38.273Z,14.48
2023-04-08T15:43:58.507Z,14.57
2023-04-08T15:47:20.088Z,14.98
2023-04-08T15:50:41.743Z,15.75
2023-04-08T15:54:02.289Z,15.18
2023-04-08T15:57:26.559Z,13.85
2023-04-08T16:00:46.846Z,14.73
2023-04-08T16:04:08.551Z,16.02
2023-04-08T16:07:28.827Z,16.48
2023-04-08T16:10:49.040Z,15.43
2023-04-08T16:14:09.284Z,15.48
2023-04-08T16:17:29.530Z,15.27
2023-04-08T16:20:51.361Z,14.73
2023-04-08T16:24:12.217Z,14.20
2023-04-08T16:27:33.264Z,14.65
2023-04-08T16:30:53.471Z,14.00
2023-04-08T16:34:14.156Z,14.00
2023-04-08T16:37:36.769Z,14.02
2023-04-08T16:40:58.445Z,46.17
2023-04-08T16:44:18.684Z,40.60
2023-04-08T16:47:41.606Z,22.63
2023-04-08T16:51:04.799Z,14.20
2023-04-08T16:54:26.570Z,13.55
2023-04-08T16:57:47.572Z,19.50
2023-04-08T17:01:08.100Z,34.17
2023-04-08T17:04:28.395Z,29.48
2023-04-08T17:07:48.791Z,15.45
2023-04-08T17:11:10.953Z,14.30
2023-04-08T17:14:31.930Z,14.55
2023-04-08T17:17:52.389Z,15.77
2023-04-08T17:21:13.866Z,16.55
2023-04-08T17:24:34.117Z,16.52
2023-04-08T17:27:55.600Z,15.15
2023-04-08T17:31:16.243Z,15.10
2023-04-08T17:34:37.610Z,21.48
2023-04-08T17:37:57.941Z,25.00
2023-04-08T17:41:29.818Z,23.83
2023-04-08T17:45:01.598Z,29.30
2023-04-08T17:48:21.863Z,30.90
2023-04-08T17:51:42.205Z,26.92
2023-04-08T17:55:02.733Z,28.83
2023-04-08T17:58:23.281Z,26.42
2023-04-08T18:01:44.966Z,23.95
2023-04-08T18:05:06.504Z,25.25
2023-04-08T18:08:26.898Z,28.48
2023-04-08T18:11:47.125Z,36.47
2023-04-08T18:15:07.728Z,37.72
2023-04-08T18:18:29.447Z,29.00
2023-04-08T18:21:49.742Z,21.27
2023-04-08T18:25:10.772Z,19.10
2023-04-08T18:28:31.395Z,17.77
2023-04-08T18:31:51.787Z,16.17
2023-04-08T18:35:13.404Z,18.58
2023-04-08T18:38:36.021Z,27.15
2023-04-08T18:41:56.785Z,31.45
2023-04-08T18:45:17.065Z,27.75
2023-04-08T18:48:37.252Z,24.52
2023-04-08T18:52:03.030Z,20.90
2023-04-08T18:55:23.805Z,19.60
2023-04-08T18:58:46.747Z,21.45
2023-04-08T19:02:07.854Z,23.63
2023-04-08T19:05:28.121Z,22.83
2023-04-08T19:08:49.661Z,25.83
2023-04-08T19:12:09.921Z,26.60
2023-04-08T19:15:30.230Z,25.95
2023-04-08T19:18:50.796Z,26.67
2023-04-08T19:22:11.670Z,25.50
2023-04-08T19:25:33.409Z,26.63
2023-04-08T19:28:53.609Z,26.55
2023-04-08T19:32:14.359Z,26.70
2023-04-08T19:35:34.712Z,28.60
2023-04-08T19:38:55.470Z,29.83
2023-04-08T19:42:18.391Z,30.73
2023-04-08T19:45:38.784Z,34.67
2023-04-08T19:48:59.178Z,33.55
2023-04-08T19:52:20.509Z,33.72
2023-04-08T19:55:43.002Z,35.13
2023-04-08T19:59:04.702Z,33.30
2023-04-08T20:02:25.755Z,32.97
2023-04-08T20:05:46.611Z,33.80
2023-04-08T20:09:06.910Z,34.88
2023-04-08T20:12:27.829Z,30.33
2023-04-08T20:15:49.891Z,30.15
2023-04-08T20:19:10.384Z,30.42
2023-04-08T20:22:31.022Z,32.90
2023-04-08T20:25:52.451Z,30.77
2023-04-08T20:29:13.143Z,30.52
2023-04-08T20:32:34.788Z,30.10
2023-04-08T20:35:57.164Z,33.10
2023-04-08T20:39:17.654Z,34.17
2023-04-08T20:42:38.630Z,39.70
2023-04-08T20:45:59.528Z,43.25
2023-04-08T20:49:21.378Z,41.53
2023-04-08T20:52:41.624Z,41.63
2023-04-08T20:56:02.612Z,39.15
2023-04-08T20:59:23.126Z,32.42
2023-04-08T21:02:43.864Z,30.85
2023-04-08T21:06:05.992Z,31.48
2023-04-08T21:09:26.637Z,31.58
2023-04-08T21:12:46.926Z,30.88
2023-04-08T21:16:07.469Z,30.20
2023-04-08T21:19:27.746Z,30.25
2023-04-08T21:22:49.416Z,33.78
2023-04-08T21:26:13.589Z,34.08
2023-04-08T21:29:34.117Z,34.80
2023-04-08T21:32:54.807Z,36.00
2023-04-08T21:36:15.780Z,33.80
2023-04-08T21:39:37.893Z,34.00
2023-04-08T21:42:58.225Z,35.08
2023-04-08T21:46:18.913Z,36.35
2023-04-08T21:49:39.284Z,35.55
2023-04-08T21:52:59.506Z,36.13
2023-04-08T21:56:22.170Z,35.45
2023-04-08T21:59:42.382Z,37.65
2023-04-08T22:03:02.883Z,33.75
2023-04-08T22:06:32.340Z,35.92
2023-04-08T22:09:54.452Z,36.03
2023-04-08T22:13:18.689Z,33.08
2023-04-08T22:16:39.651Z,34.13
2023-04-08T22:19:59.930Z,34.45
2023-04-08T22:23:20.226Z,37.03
2023-04-08T22:26:42.128Z,36.00
2023-04-08T22:30:03.885Z,36.05
2023-04-08T22:33:25.620Z,37.17
2023-04-08T22:36:46.603Z,35.95
2023-04-08T22:40:07.585Z,37.75
2023-04-08T22:43:27.809Z,36.85
2023-04-08T22:46:49.415Z,38.53
2023-04-08T22:50:10.229Z,36.35
2023-04-08T22:53:30.552Z,37.50
2023-04-08T22:56:51.435Z,36.78
2023-04-08T23:00:12.804Z,35.92
2023-04-08T23:03:34.452Z,34.92
2023-04-08T23:06:54.690Z,36.08
2023-04-08T23:10:15.012Z,34.20
2023-04-08T23:13:35.293Z,34.22
2023-04-08T23:16:55.537Z,34.25
2023-04-08T23:20:17.281Z,35.65
2023-04-08T23:23:37.527Z,35.15
2023-04-08T23:26:58.578Z,36.83
2023-04-08T23:30:18.876Z,36.10
2023-04-08T23:33:39.371Z,37.95
2023-04-08T23:37:02.250Z,39.03
2023-04-08T23:40:22.907Z,37.10
2023-04-08T23:43:43.760Z,39.85
2023-04-08T23:47:03.993Z,38.42
2023-04-08T23:50:24.245Z,38.70
2023-04-08T23:53:46.023Z,36.75
2023-04-08T23:57:06.619Z,39.38
